createdAt,value
2023-01-01T00:01:31.543Z,14.30
2023-01-01T00:03:59.612Z,14.20
2023-01-01T00:06:30.052Z,14.00
2023-01-01T00:09:16.447Z,13.80
2023-01-01T00:11:52.829Z,13.60
2023-01-01T00:14:19.845Z,13.40
2023-01-01T00:16:48.713Z,13.30
2023-01-01T00:19:45.720Z,13.10
2023-01-01T00:22:52.110Z,13.10
2023-01-01T00:25:00.744Z,13.10
2023-01-01T00:27:27.609Z,13.10
2023-01-01T00:29:57.472Z,13.00
2023-01-01T00:32:27.070Z,12.90
2023-01-01T00:34:58.695Z,12.80
2023-01-01T00:37:27.764Z,12.70
2023-01-01T00:39:54.571Z,12.50
2023-01-01T00:42:24.271Z,12.30
2023-01-01T00:44:54.901Z,12.20
2023-01-01T00:47:27.955Z,12.10
2023-01-01T00:49:54.819Z,12.00
2023-01-01T00:52:27.747Z,11.90
2023-01-01T00:54:54.346Z,11.80
2023-01-01T00:57:23.547Z,11.70
2023-01-01T00:59:52.689Z,11.70
2023-01-01T01:02:21.145Z,11.70
2023-01-01T01:04:48.768Z,11.70
2023-01-01T01:10:00.732Z,11.80
2023-01-01T01:12:27.376Z,11.90
2023-01-01T01:14:54.048Z,12.00
2023-01-01T01:17:23.046Z,12.10
2023-01-01T01:19:55.953Z,12.30
2023-01-01T01:22:28.321Z,12.50
2023-01-01T01:24:56.387Z,12.70
2023-01-01T01:27:24.262Z,12.90
2023-01-01T01:29:51.979Z,12.90
2023-01-01T01:32:21.244Z,13.00
2023-01-01T01:34:50.495Z,12.90
2023-01-01T01:37:18.603Z,12.80
2023-01-01T01:39:49.014Z,12.50
2023-01-01T01:42:18.493Z,12.30
2023-01-01T01:44:50.955Z,12.20
2023-01-01T01:47:31.721Z,11.90
2023-01-01T01:50:41.169Z,11.80
2023-01-01T01:53:15.073Z,11.50
2023-01-01T01:55:48.040Z,11.30
2023-01-01T01:58:17.605Z,11.00
2023-01-01T02:00:48.118Z,10.90
2023-01-01T02:03:20.838Z,10.80
2023-01-01T02:05:51.277Z,10.70
2023-01-01T02:08:20.534Z,10.60
2023-01-01T02:10:50.168Z,10.50
2023-01-01T02:13:18.448Z,10.40
2023-01-01T02:16:01.359Z,10.40
2023-01-01T02:18:48.915Z,10.30
2023-01-01T02:21:44.569Z,10.30
2023-01-01T02:24:48.660Z,10.50
2023-01-01T02:27:50.902Z,11.00
2023-01-01T02:30:24.779Z,11.50
2023-01-01T02:33:05.617Z,12.00
2023-01-01T02:36:02.904Z,12.50
2023-01-01T02:38:56.167Z,13.00
2023-01-01T02:41:42.589Z,13.40
2023-01-01T02:44:20.858Z,13.90
2023-01-01T02:46:52.052Z,14.00
2023-01-01T02:50:05.594Z,14.20
2023-01-01T02:53:23.538Z,14.20
2023-01-01T02:55:59.719Z,14.20
2023-01-01T02:59:31.305Z,14.10
2023-01-01T03:02:45.243Z,14.00
2023-01-01T03:06:04.702Z,14.20
2023-01-01T03:09:05.546Z,14.30
2023-01-01T03:12:10.275Z,14.40
2023-01-01T03:15:00.912Z,14.40
2023-01-01T03:17:49.214Z,14.50
2023-01-01T03:20:27.595Z,14.40
2023-01-01T03:23:02.076Z,14.50
2023-01-01T03:25:50.788Z,14.50
2023-01-01T03:28:26.663Z,14.50
2023-01-01T03:30:59.685Z,14.40
2023-01-01T03:34:06.796Z,14.40
2023-01-01T03:46:25.187Z,14.30
2023-01-01T03:49:07.641Z,14.20
2023-01-01T03:52:15.389Z,14.00
2023-01-01T03:54:59.224Z,13.80
2023-01-01T03:58:04.022Z,13.70
2023-01-01T04:00:35.307Z,13.60
2023-01-01T04:03:08.391Z,13.50
2023-01-01T04:06:06.417Z,13.40
2023-01-01T04:08:35.705Z,13.20
2023-01-01T04:11:49.699Z,13.00
2023-01-01T04:14:42.488Z,12.80
2023-01-01T04:17:20.261Z,12.50
2023-01-01T04:19:53.146Z,12.30
2023-01-01T04:22:29.938Z,12.20
2023-01-01T04:24:58.663Z,11.90
2023-01-01T04:27:39.555Z,11.80
2023-01-01T04:30:08.604Z,11.60
2023-01-01T04:32:35.425Z,11.50
2023-01-01T04:35:07.491Z,11.40
2023-01-01T04:37:37.540Z,11.30
2023-01-01T04:40:07.820Z,11.10
2023-01-01T04:42:36.571Z,11.00
2023-01-01T04:45:11.958Z,10.90
2023-01-01T04:47:42.294Z,10.80
2023-01-01T04:50:09.401Z,10.70
2023-01-01T04:52:36.624Z,10.60
2023-01-01T04:55:08.691Z,10.50
2023-01-01T04:57:45.985Z,10.40
2023-01-01T05:00:19.730Z,10.40
2023-01-01T05:02:46.581Z,10.30
2023-01-01T05:05:13.453Z,10.20
2023-01-01T05:07:44.990Z,10.10
2023-01-01T05:10:14.445Z,10.00
2023-01-01T05:12:41.862Z,9.90
2023-01-01T05:15:10.995Z,9.90
2023-01-01T05:17:37.819Z,9.70
2023-01-01T05:20:15.640Z,9.60
2023-01-01T05:22:46.899Z,9.60
2023-01-01T05:25:34.965Z,9.50
2023-01-01T05:28:01.990Z,9.50
2023-01-01T05:30:30.593Z,9.50
2023-01-01T05:32:58.678Z,9.40
2023-01-01T05:35:31.556Z,9.40
2023-01-01T05:38:33.583Z,9.30
2023-01-01T05:41:11.894Z,9.30
2023-01-01T05:43:54.090Z,9.20
2023-01-01T05:46:25.968Z,9.10
2023-01-01T05:48:53.903Z,9.10
2023-01-01T05:51:27.597Z,9.10
2023-01-01T05:53:55.493Z,9.00
2023-01-01T05:56:23.806Z,8.90
2023-01-01T05:58:51.215Z,8.90
2023-01-01T06:01:27.053Z,8.80
2023-01-01T06:03:55.485Z,8.70
2023-01-01T06:06:32.276Z,8.70
2023-01-01T06:09:06.008Z,8.60
2023-01-01T06:11:34.020Z,8.60
2023-01-01T06:14:01.345Z,8.50
2023-01-01T06:16:30.561Z,8.60
2023-01-01T06:19:00.748Z,8.60
2023-01-01T06:21:28.688Z,8.70
2023-01-01T06:23:58.592Z,8.70
2023-01-01T06:26:52.756Z,8.80
2023-01-01T06:29:22.604Z,8.90
2023-01-01T06:31:49.272Z,8.90
2023-01-01T06:34:19.065Z,8.90
2023-01-01T06:36:46.273Z,8.90
2023-01-01T06:39:23.575Z,8.90
2023-01-01T06:41:50.292Z,8.90
2023-01-01T06:44:16.973Z,8.80
2023-01-01T06:46:50.126Z,8.80
2023-01-01T06:49:20.505Z,8.70
2023-01-01T06:51:49.522Z,8.70
2023-01-01T06:54:16.306Z,8.70
2023-01-01T06:56:50.758Z,8.60
2023-01-01T06:59:17.628Z,8.60
2023-01-01T07:01:45.125Z,8.60
2023-01-01T07:04:14.761Z,8.50
2023-01-01T07:06:49.583Z,8.50
2023-01-01T07:12:30.637Z,8.50
2023-01-01T07:18:26.375Z,8.40
2023-01-01T07:21:02.174Z,8.40
2023-01-01T07:23:34.495Z,8.40
2023-01-01T07:26:01.444Z,8.40
2023-01-01T07:28:38.283Z,8.40
2023-01-01T07:31:04.892Z,8.40
2023-01-01T07:33:31.599Z,8.30
2023-01-01T07:35:58.451Z,8.40
2023-01-01T07:38:25.235Z,8.50
2023-01-01T07:40:51.968Z,8.60
2023-01-01T07:43:18.769Z,8.60
2023-01-01T07:45:45.494Z,8.70
2023-01-01T07:48:15.072Z,8.70
2023-01-01T07:50:42.665Z,8.70
2023-01-01T07:53:09.351Z,8.70
2023-01-01T07:55:36.211Z,8.80
2023-01-01T07:58:03.830Z,8.90
2023-01-01T08:00:30.548Z,8.90
2023-01-01T08:03:00.379Z,9.00
2023-01-01T08:05:35.112Z,9.00
2023-01-01T08:08:02.771Z,9.00
2023-01-01T08:10:31.617Z,9.10
2023-01-01T08:13:03.440Z,9.10
2023-01-01T08:15:34.177Z,9.20
2023-01-01T08:18:04.848Z,9.20
2023-01-01T08:20:32.882Z,9.20
2023-01-01T08:23:07.024Z,9.30
2023-01-01T08:25:53.874Z,9.40
2023-01-01T08:28:20.623Z,9.40
2023-01-01T08:30:47.307Z,9.50
2023-01-01T08:33:15.709Z,9.60
2023-01-01T08:35:53.632Z,9.60
2023-01-01T08:38:21.038Z,9.70
2023-01-01T08:40:50.256Z,9.80
2023-01-01T08:43:39.775Z,9.80
2023-01-01T08:46:08.462Z,9.90
2023-01-01T08:48:37.476Z,10.00
2023-01-01T08:51:09.255Z,10.20
2023-01-01T08:53:36.449Z,10.40
2023-01-01T08:56:08.813Z,10.50
2023-01-01T08:58:42.744Z,10.70
2023-01-01T09:01:10.480Z,10.80
2023-01-01T09:03:37.535Z,11.00
2023-01-01T09:06:04.794Z,11.20
2023-01-01T09:08:39.121Z,11.40
2023-01-01T09:11:08.092Z,11.60
2023-01-01T09:13:35.269Z,11.80
2023-01-01T09:16:02.106Z,11.90
2023-01-01T09:18:32.494Z,12.10
2023-01-01T09:21:00.417Z,12.30
2023-01-01T09:26:33.231Z,12.50
2023-01-01T09:29:00.547Z,12.70
2023-01-01T09:31:27.697Z,13.00
2023-01-01T09:33:54.697Z,13.50
2023-01-01T09:36:21.526Z,14.20
2023-01-01T09:38:52.196Z,14.70
2023-01-01T09:41:32.216Z,15.10
2023-01-01T09:44:20.913Z,15.40
2023-01-01T09:46:48.989Z,15.60
2023-01-01T09:49:27.808Z,15.70
2023-01-01T09:52:00.582Z,15.80
2023-01-01T09:54:41.363Z,15.90
2023-01-01T09:57:18.007Z,15.90
2023-01-01T09:59:52.855Z,16.00
2023-01-01T10:02:58.271Z,16.10
2023-01-01T10:05:37.164Z,16.20
2023-01-01T10:08:37.788Z,16.30
2023-01-01T10:11:24.313Z,16.30
2023-01-01T10:13:52.647Z,16.60
2023-01-01T10:16:53.714Z,16.70
2023-01-01T10:19:31.672Z,16.90
2023-01-01T10:22:23.712Z,17.00
2023-01-01T10:25:03.311Z,17.10
2023-01-01T10:27:59.386Z,17.30
2023-01-01T10:30:27.696Z,17.30
2023-01-01T10:32:55.652Z,17.30
2023-01-01T10:35:36.392Z,17.40
2023-01-01T10:38:04.286Z,17.40
2023-01-01T10:40:31.803Z,17.40
2023-01-01T10:43:00.104Z,17.40
2023-01-01T10:45:31.207Z,17.50
2023-01-01T10:48:16.654Z,17.50
2023-01-01T10:50:51.022Z,17.60
2023-01-01T10:53:30.145Z,17.60
2023-01-01T10:56:03.225Z,17.70
2023-01-01T10:58:58.818Z,17.70
2023-01-01T11:01:28.188Z,17.80
2023-01-01T11:04:08.020Z,18.00
2023-01-01T11:06:48.936Z,18.10
2023-01-01T11:09:28.628Z,18.20
2023-01-01T11:13:02.832Z,18.30
2023-01-01T11:15:36.292Z,18.40
2023-01-01T11:18:12.566Z,18.40
2023-01-01T11:20:40.550Z,18.50
2023-01-01T11:23:19.980Z,18.60
2023-01-01T11:26:03.547Z,18.70
2023-01-01T11:29:01.501Z,18.80
2023-01-01T11:31:34.203Z,19.00
2023-01-01T11:37:16.148Z,19.20
2023-01-01T11:39:45.783Z,19.30
2023-01-01T11:42:21.995Z,19.40
2023-01-01T11:44:55.189Z,19.50
2023-01-01T11:47:30.288Z,19.50
2023-01-01T11:50:08.463Z,19.40
2023-01-01T11:52:39.947Z,19.40
2023-01-01T11:55:35.557Z,19.30
2023-01-01T11:58:24.407Z,19.40
2023-01-01T12:00:55.344Z,19.40
2023-01-01T12:03:54.194Z,19.40
2023-01-01T12:06:36.070Z,19.40
2023-01-01T12:09:19.015Z,19.40
2023-01-01T12:12:07.115Z,19.40
2023-01-01T12:14:59.868Z,19.40
2023-01-01T12:17:45.406Z,19.40
2023-01-01T12:20:35.066Z,19.40
2023-01-01T12:23:03.243Z,19.40
2023-01-01T12:25:40.100Z,19.30
2023-01-01T12:28:28.281Z,19.20
2023-01-01T12:31:28.909Z,19.10
2023-01-01T12:34:12.509Z,19.10
2023-01-01T12:36:57.798Z,19.20
2023-01-01T12:39:34.745Z,19.20
2023-01-01T12:42:43.414Z,19.20
2023-01-01T12:45:37.553Z,19.20
2023-01-01T12:48:29.938Z,19.10
2023-01-01T12:51:16.739Z,19.10
2023-01-01T12:54:09.528Z,19.10
2023-01-01T12:56:57.659Z,19.10
2023-01-01T12:59:40.495Z,18.90
2023-01-01T13:02:22.838Z,18.90
2023-01-01T13:04:58.074Z,18.80
2023-01-01T13:07:40.393Z,18.80
2023-01-01T13:10:30.292Z,18.90
2023-01-01T13:12:57.078Z,19.00
2023-01-01T13:15:45.411Z,19.00
2023-01-01T13:18:21.840Z,18.90
2023-01-01T13:21:16.712Z,18.90
2023-01-01T13:23:44.845Z,18.90
2023-01-01T13:26:17.821Z,19.00
2023-01-01T13:29:10.991Z,19.10
2023-01-01T13:31:41.353Z,19.10
2023-01-01T13:34:30.357Z,19.00
2023-01-01T13:37:19.669Z,19.00
2023-01-01T13:39:56.609Z,19.10
2023-01-01T13:42:55.495Z,19.10
2023-01-01T13:46:10.631Z,19.00
2023-01-01T13:48:59.313Z,19.00
2023-01-01T13:52:06.979Z,18.90
2023-01-01T13:58:14.149Z,18.70
2023-01-01T14:01:02.828Z,18.60
2023-01-01T14:03:42.632Z,18.50
2023-01-01T14:06:27.542Z,18.40
2023-01-01T14:09:12.856Z,18.30
2023-01-01T14:11:42.735Z,18.20
2023-01-01T14:14:23.751Z,18.10
2023-01-01T14:17:08.311Z,18.00
2023-01-01T14:19:40.847Z,18.00
2023-01-01T14:22:08.377Z,17.90
2023-01-01T14:24:41.958Z,17.80
2023-01-01T14:27:41.367Z,17.70
2023-01-01T14:30:37.729Z,17.70
2023-01-01T14:33:24.627Z,17.50
2023-01-01T14:36:03.370Z,17.40
2023-01-01T14:38:33.784Z,17.20
2023-01-01T14:41:13.478Z,17.00
2023-01-01T14:43:48.355Z,16.90
2023-01-01T14:46:48.858Z,16.80
2023-01-01T14:49:38.863Z,16.60
2023-01-01T14:52:21.611Z,16.50
2023-01-01T14:54:49.014Z,16.40
2023-01-01T14:57:21.581Z,16.30
2023-01-01T14:59:57.827Z,16.20
2023-01-01T15:02:29.624Z,16.10
2023-01-01T15:05:38.919Z,16.10
2023-01-01T15:08:22.609Z,16.00
2023-01-01T15:10:50.744Z,15.90
2023-01-01T15:13:22.443Z,15.90
2023-01-01T15:15:55.537Z,15.80
2023-01-01T15:18:46.709Z,15.80
2023-01-01T15:21:23.840Z,15.60
2023-01-01T15:24:10.362Z,15.50
2023-01-01T15:27:02.339Z,15.50
2023-01-01T15:29:38.175Z,15.40
2023-01-01T15:32:09.058Z,15.40
2023-01-01T15:34:46.099Z,15.40
2023-01-01T15:37:44.258Z,15.30
2023-01-01T15:40:17.523Z,15.20
2023-01-01T15:43:15.585Z,15.00
2023-01-01T15:46:09.920Z,14.80
2023-01-01T15:48:48.497Z,14.70
2023-01-01T15:51:28.161Z,14.40
2023-01-01T15:53:57.368Z,14.30
2023-01-01T15:56:38.247Z,14.20
2023-01-01T15:59:23.396Z,14.20
2023-01-01T16:01:50.851Z,14.10
2023-01-01T16:04:29.022Z,14.00
2023-01-01T16:06:58.300Z,13.90
2023-01-01T16:09:25.811Z,13.90
2023-01-01T16:11:54.480Z,13.80
2023-01-01T16:14:28.084Z,13.70
2023-01-01T16:17:00.129Z,13.60
2023-01-01T16:19:30.600Z,13.50
2023-01-01T16:21:58.021Z,13.30
2023-01-01T16:24:24.951Z,13.20
2023-01-01T16:26:53.600Z,13.10
2023-01-01T16:29:20.217Z,13.00
2023-01-01T16:31:51.197Z,12.90
2023-01-01T16:34:20.496Z,12.80
2023-01-01T16:36:51.200Z,12.80
2023-01-01T16:39:23.237Z,12.80
2023-01-01T16:41:52.497Z,12.80
2023-01-01T16:44:20.419Z,12.80
2023-01-01T16:46:47.245Z,12.70
2023-01-01T16:49:15.047Z,12.70
2023-01-01T16:51:44.380Z,12.70
2023-01-01T16:54:11.856Z,12.70
2023-01-01T16:56:38.552Z,12.70
2023-01-01T16:59:07.423Z,12.60
2023-01-01T17:01:34.894Z,12.50
2023-01-01T17:04:04.562Z,12.40
2023-01-01T17:06:31.321Z,12.30
2023-01-01T17:09:01.109Z,12.20
2023-01-01T17:11:30.352Z,12.10
2023-01-01T17:14:02.657Z,12.00
2023-01-01T17:16:36.525Z,12.00
2023-01-01T17:19:16.177Z,12.00
2023-01-01T17:21:47.634Z,12.00
2023-01-01T17:24:19.927Z,12.00
2023-01-01T17:26:54.767Z,12.10
2023-01-01T17:29:25.593Z,12.10
2023-01-01T17:31:57.100Z,12.10
2023-01-01T17:34:27.174Z,12.10
2023-01-01T17:36:58.346Z,12.10
2023-01-01T17:39:28.134Z,12.10
2023-01-01T17:42:09.886Z,12.20
2023-01-01T17:44:43.372Z,12.20
2023-01-01T17:47:14.265Z,12.30
2023-01-01T17:49:48.960Z,12.30
2023-01-01T17:52:25.366Z,12.30
2023-01-01T17:54:56.006Z,12.30
2023-01-01T17:57:22.744Z,12.40
2023-01-01T17:59:49.502Z,12.40
2023-01-01T18:02:16.646Z,12.50
2023-01-01T18:04:48.699Z,12.50
2023-01-01T18:07:15.979Z,12.60
2023-01-01T18:09:46.301Z,12.60
2023-01-01T18:12:17.172Z,12.70
2023-01-01T18:14:54.272Z,12.70
2023-01-01T18:17:23.663Z,12.70
2023-01-01T18:19:54.406Z,12.70
2023-01-01T18:22:24.372Z,12.80
2023-01-01T18:27:57.670Z,12.80
2023-01-01T18:30:32.633Z,12.80
2023-01-01T18:33:03.499Z,12.80
2023-01-01T18:35:37.143Z,12.70
2023-01-01T18:41:22.770Z,12.40
2023-01-01T18:44:19.093Z,12.40
2023-01-01T18:47:17.251Z,12.30
2023-01-01T18:50:53.266Z,12.30
2023-01-01T18:53:23.664Z,12.10
2023-01-01T18:56:24.783Z,12.00
2023-01-01T18:58:57.870Z,11.90
2023-01-01T19:01:48.548Z,11.80
2023-01-01T19:04:18.886Z,11.70
2023-01-01T19:06:46.480Z,11.60
2023-01-01T19:09:30.297Z,11.50
2023-01-01T19:12:10.993Z,11.50
2023-01-01T19:14:40.846Z,11.40
2023-01-01T19:17:23.818Z,11.30
2023-01-01T19:19:52.129Z,11.20
2023-01-01T19:22:30.480Z,11.20
2023-01-01T19:25:02.415Z,11.20
2023-01-01T19:30:24.049Z,11.10
2023-01-01T19:33:07.474Z,11.00
2023-01-01T19:35:46.076Z,10.90
2023-01-01T19:38:24.648Z,10.80
2023-01-01T19:40:57.287Z,10.80
2023-01-01T19:43:42.472Z,10.80
2023-01-01T19:46:09.343Z,10.70
2023-01-01T19:48:38.024Z,10.60
2023-01-01T19:51:07.955Z,10.60
2023-01-01T19:53:51.790Z,10.60
2023-01-01T19:56:31.770Z,10.50
2023-01-01T19:59:01.465Z,10.50
2023-01-01T20:02:34.887Z,10.50
2023-01-01T20:05:11.573Z,10.40
2023-01-01T20:07:49.294Z,10.30
2023-01-01T20:10:16.490Z,10.30
2023-01-01T20:15:47.067Z,10.20
2023-01-01T20:18:16.529Z,10.20
2023-01-01T20:21:08.448Z,10.20
2023-01-01T20:23:41.409Z,10.10
2023-01-01T20:26:11.144Z,10.00
2023-01-01T20:32:01.966Z,10.00
2023-01-01T20:34:43.500Z,10.00
2023-01-01T20:37:36.289Z,9.90
2023-01-01T20:40:09.220Z,9.90
2023-01-01T20:42:50.656Z,9.90
2023-01-01T20:45:20.785Z,9.90
2023-01-01T20:47:48.706Z,9.80
2023-01-01T20:50:24.555Z,9.80
2023-01-01T20:52:58.025Z,9.80
2023-01-01T20:55:26.070Z,9.80
2023-01-01T20:58:03.040Z,9.70
2023-01-01T21:00:50.385Z,9.70
2023-01-01T21:03:31.887Z,9.70
2023-01-01T21:05:59.089Z,9.70
2023-01-01T21:08:29.569Z,9.70
2023-01-01T21:11:23.579Z,9.70
2023-01-01T21:14:03.111Z,9.70
2023-01-01T21:16:43.560Z,9.70
2023-01-01T21:19:12.192Z,9.60
2023-01-01T21:22:04.216Z,9.60
2023-01-01T21:24:49.806Z,9.60
2023-01-01T21:27:37.483Z,9.60
2023-01-01T21:30:20.455Z,9.50
2023-01-01T21:33:05.257Z,9.50
2023-01-01T21:35:34.411Z,9.50
2023-01-01T21:38:23.654Z,9.50
2023-01-01T21:41:00.335Z,9.50
2023-01-01T21:43:40.304Z,9.50
2023-01-01T21:46:09.226Z,9.50
2023-01-01T21:49:05.779Z,9.50
2023-01-01T21:51:42.867Z,9.60
2023-01-01T21:54:11.457Z,9.50
2023-01-01T21:56:56.860Z,9.50
2023-01-01T21:59:35.231Z,9.50
2023-01-01T22:02:06.209Z,9.50
2023-01-01T22:04:38.733Z,9.40
2023-01-01T22:07:57.029Z,9.40
2023-01-01T22:10:29.171Z,9.40
2023-01-01T22:13:13.954Z,9.40
2023-01-01T22:15:45.216Z,9.30
2023-01-01T22:18:24.997Z,9.30
2023-01-01T22:20:53.888Z,9.30
2023-01-01T22:23:58.929Z,9.20
2023-01-01T22:26:28.543Z,9.20
2023-01-01T22:29:23.727Z,9.20
2023-01-01T22:32:02.251Z,9.10
2023-01-01T22:34:30.050Z,9.10
2023-01-01T22:37:14.781Z,9.10
2023-01-01T22:39:42.413Z,9.10
2023-01-01T22:42:15.974Z,9.10
2023-01-01T22:44:43.917Z,9.00
2023-01-01T22:47:20.399Z,9.10
2023-01-01T22:49:51.952Z,9.00
2023-01-01T22:52:18.688Z,9.00
2023-01-01T22:54:48.482Z,9.00
2023-01-01T22:57:15.151Z,9.00
2023-01-01T22:59:43.001Z,9.00
2023-01-01T23:02:13.059Z,9.00
2023-01-01T23:04:39.880Z,9.00
2023-01-01T23:07:13.364Z,9.00
2023-01-01T23:09:41.005Z,9.00
2023-01-01T23:12:08.035Z,9.00
2023-01-01T23:14:54.616Z,9.00
2023-01-01T23:17:24.262Z,9.00
2023-01-01T23:19:57.565Z,9.00
2023-01-01T23:22:29.895Z,9.00
2023-01-01T23:24:59.709Z,9.00
2023-01-01T23:27:28.652Z,9.10
2023-01-01T23:29:55.825Z,9.10
2023-01-01T23:32:22.696Z,9.10
2023-01-01T23:34:49.371Z,9.00
2023-01-01T23:37:18.799Z,9.10
2023-01-01T23:39:48.733Z,9.10
2023-01-01T23:42:15.387Z,9.10
2023-01-01T23:44:42.141Z,9.10
2023-01-01T23:47:09.678Z,9.10
2023-01-01T23:49:36.313Z,9.10
2023-01-01T23:52:05.238Z,9.10
2023-01-01T23:54:32.051Z,9.20
2023-01-01T23:56:58.834Z,9.20
2023-01-01T23:59:25.529Z,9.20
